Time;durP1;ratioP1;P1;durP2;ratioP2;P2;SDS_P1;SDS_P2;PMS_P1;PMS_P2;Temp;Humidity;BMP_temperature;BMP_pressure;BME280_temperature;BME280_humidity;BME280_pressure;Samples;Min_cycle;Max_cycle;Signal;HPM_P1;HPM_P2
2022/08/17 05:03:40;;;;;;;9.73;7.38;;;18.60;96.70;;;;;;4967316;27;20047;-74
2022/08/17 05:06:06;;;;;;;8.40;7.20;;;18.60;96.70;;;;;;4949604;29;20083;-73
2022/08/17 05:08:33;;;;;;;10.02;7.68;;;18.60;96.30;;;;;;4965828;29;20027;-74
2022/08/17 05:10:59;;;;;;;11.10;7.57;;;18.70;96.40;;;;;;4966457;29;20027;-73
2022/08/17 05:13:28;;;;;;;13.02;7.50;;;18.70;96.20;;;;;;4949060;29;20147;-73
2022/08/17 05:15:56;;;;;;;10.63;7.03;;;18.90;95.90;;;;;;4933415;29;20051;-74
2022/08/17 05:18:22;;;;;;;13.07;7.15;;;19.00;95.40;;;;;;4948821;29;20270;-74
2022/08/17 05:20:48;;;;;;;13.82;7.35;;;19.10;94.90;;;;;;4949505;29;20209;-74
2022/08/17 05:23:15;;;;;;;9.68;6.18;;;19.20;94.60;;;;;;4966077;29;20031;-75
2022/08/17 05:25:46;;;;;;;10.70;6.60;;;19.30;94.20;;;;;;4966394;29;20039;-73
2022/08/17 05:28:12;;;;;;;7.35;6.15;;;19.40;93.90;;;;;;4965962;29;20506;-76
2022/08/17 05:30:40;;;;;;;8.63;6.03;;;19.50;93.70;;;;;;4966389;29;20297;-73
2022/08/17 05:33:10;;;;;;;8.23;6.13;;;19.60;93.60;;;;;;4949069;29;20027;-73
2022/08/17 05:35:41;;;;;;;9.85;6.15;;;19.70;92.70;;;;;;4966074;29;20070;-73
2022/08/17 05:38:07;;;;;;;11.98;6.35;;;19.90;92.70;;;;;;4966218;29;20078;-73
2022/08/17 05:40:34;;;;;;;7.63;5.78;;;19.90;92.20;;;;;;4948720;29;20035;-74
2022/08/17 05:43:08;;;;;;;9.63;5.55;;;20.00;92.00;;;;;;4965748;29;20027;-73
2022/08/17 05:45:40;;;;;;;9.23;5.30;;;20.20;91.80;;;;;;4965426;29;20062;-73
2022/08/17 05:48:08;;;;;;;7.18;5.70;;;20.30;91.50;;;;;;4966099;29;20094;-74
2022/08/17 05:51:18;;;;;;;9.77;6.30;;;20.40;91.20;;;;;;4965668;29;20066;-73
2022/08/17 05:54:03;;;;;;;9.27;6.22;;;20.40;90.90;;;;;;4965190;28;20062;-73
2022/08/17 05:56:56;;;;;;;10.77;6.20;;;20.40;90.80;;;;;;4965615;29;20053;-75
2022/08/17 05:59:40;;;;;;;10.85;6.68;;;20.60;90.60;;;;;;4964597;28;20078;-76
2022/08/17 06:02:18;;;;;;;10.45;6.60;;;20.70;90.30;;;;;;4965451;29;20050;-74
2022/08/17 06:04:47;;;;;;;8.95;7.03;;;20.80;90.20;;;;;;4965657;29;20034;-74
2022/08/17 06:07:31;;;;;;;;;;;20.80;90.20;;;;;;4966114;29;20038;-74
2022/08/17 06:10:39;;;;;;;9.50;7.20;;;20.80;90.00;;;;;;4965784;29;19945;-75
2022/08/17 06:13:13;;;;;;;;;;;20.90;90.00;;;;;;4964276;29;20109;-74
2022/08/17 06:16:03;;;;;;;11.07;7.07;;;20.90;89.90;;;;;;4948602;29;19911;-74
2022/08/17 06:18:44;;;;;;;10.80;6.40;;;20.90;90.00;;;;;;4965016;29;20027;-74
2022/08/17 06:21:14;;;;;;;8.80;7.15;;;20.90;89.90;;;;;;4948108;29;20110;-74
2022/08/17 06:24:16;;;;;;;9.60;6.43;;;20.90;89.30;;;;;;4965804;29;20200;-77
2022/08/17 06:26:44;;;;;;;10.50;6.63;;;21.10;88.80;;;;;;4965254;29;20046;-75
2022/08/17 06:29:54;;;;;;;10.25;6.53;;;21.10;88.30;;;;;;4965530;29;20038;-76
2022/08/17 06:32:20;;;;;;;15.35;6.47;;;21.30;87.80;;;;;;4943159;29;20229;-76
2022/08/17 06:34:50;;;;;;;8.63;5.90;;;21.60;86.50;;;;;;4965564;29;20099;-79
2022/08/17 06:37:41;;;;;;;9.65;6.07;;;21.70;85.80;;;;;;4964707;29;20169;-76
2022/08/17 06:40:26;;;;;;;8.48;6.43;;;21.80;84.60;;;;;;4965222;29;20042;-74
2022/08/17 06:43:11;;;;;;;10.98;6.47;;;21.90;84.20;;;;;;4965216;29;20070;-79
2022/08/17 06:45:47;;;;;;;9.95;5.75;;;22.00;83.70;;;;;;4947468;29;20249;-73
2022/08/17 06:48:42;;;;;;;7.75;6.20;;;22.20;83.10;;;;;;4947855;29;20034;-75
2022/08/17 06:51:34;;;;;;;8.23;5.55;;;22.50;82.60;;;;;;4965086;29;20031;-74
2022/08/17 06:54:11;;;;;;;9.82;5.63;;;22.80;81.30;;;;;;4931688;29;20371;-74
2022/08/17 06:57:01;;;;;;;8.63;5.70;;;23.10;80.30;;;;;;4931356;29;20046;-74
2022/08/17 06:59:43;;;;;;;9.18;5.68;;;23.50;79.00;;;;;;4963633;29;20288;-74
2022/08/17 07:02:14;;;;;;;8.02;5.53;;;23.70;78.30;;;;;;4930907;29;20336;-76
2022/08/17 07:04:41;;;;;;;9.82;6.28;;;24.00;77.20;;;;;;4964066;29;20310;-75
2022/08/17 07:09:57;;;;;;;8.38;5.78;;;24.40;75.40;;;;;;4964378;29;20097;-74
2022/08/17 07:12:30;;;;;;;9.70;5.72;;;24.50;75.30;;;;;;4963893;28;20058;-74
2022/08/17 07:15:11;;;;;;;9.43;5.45;;;24.70;73.90;;;;;;4961969;29;20035;-74
2022/08/17 07:21:40;;;;;;;9.45;5.43;;;25.20;72.50;;;;;;4955397;29;20480;-76
2022/08/17 07:24:38;;;;;;;10.85;5.80;;;25.40;71.80;;;;;;4962917;29;20026;-76
2022/08/17 07:27:06;;;;;;;7.20;5.18;;;25.50;71.20;;;;;;4963287;29;20261;-74
2022/08/17 07:29:42;;;;;;;7.47;5.22;;;25.50;70.90;;;;;;4962880;29;20027;-75
2022/08/17 07:32:13;;;;;;;7.47;5.00;;;25.50;70.80;;;;;;4950646;29;20043;-74
2022/08/17 07:35:17;;;;;;;10.85;5.20;;;25.70;70.30;;;;;;4943761;29;20035;-74
2022/08/17 07:37:52;;;;;;;9.98;5.15;;;25.90;69.50;;;;;;4942750;29;20074;-74
2022/08/17 07:40:20;;;;;;;7.85;4.93;;;25.80;69.90;;;;;;4943379;29;20035;-76
2022/08/17 07:43:17;;;;;;;8.05;4.93;;;25.90;69.70;;;;;;4943585;29;20059;-76
2022/08/17 07:49:07;;;;;;;8.15;4.70;;;25.90;69.20;;;;;;4953318;29;20031;-74
2022/08/17 07:51:44;;;;;;;7.88;5.05;;;26.10;69.50;;;;;;4962450;29;20037;-74
2022/08/17 07:54:22;;;;;;;6.47;4.50;;;26.10;69.40;;;;;;4961740;29;20031;-75
2022/08/17 07:56:51;;;;;;;11.23;5.53;;;26.10;69.50;;;;;;4962423;29;20121;-74
2022/08/17 07:59:29;;;;;;;6.97;4.75;;;26.00;69.20;;;;;;4961832;29;20328;-74
2022/08/17 08:02:04;;;;;;;7.80;3.95;;;26.10;69.30;;;;;;4962150;29;20119;-75
2022/08/17 08:04:41;;;;;;;6.90;4.20;;;26.10;69.60;;;;;;4962129;29;20249;-76
2022/08/17 08:07:22;;;;;;;5.72;4.03;;;26.30;68.80;;;;;;4962108;29;20113;-74
2022/08/17 08:10:06;;;;;;;7.43;4.10;;;26.30;68.80;;;;;;4962700;29;20057;-74
2022/08/17 08:12:35;;;;;;;6.22;4.38;;;26.40;68.80;;;;;;4945018;29;20375;-74
2022/08/17 08:15:18;;;;;;;10.82;4.45;;;26.40;68.50;;;;;;4963082;29;20022;-73
2022/08/17 08:17:56;;;;;;;7.72;4.88;;;26.30;68.70;;;;;;4962758;29;20019;-73
2022/08/17 08:20:49;;;;;;;5.97;3.90;;;26.30;68.40;;;;;;4945267;29;20058;-74
2022/08/17 08:23:25;;;;;;;6.65;4.10;;;26.20;68.40;;;;;;4963106;28;20027;-74
2022/08/17 08:26:09;;;;;;;7.90;4.28;;;26.40;69.00;;;;;;4966195;29;20087;-74
2022/08/17 08:29:00;;;;;;;9.40;4.18;;;26.60;68.00;;;;;;4966161;29;20015;-74
2022/08/17 08:31:48;;;;;;;8.98;4.55;;;26.80;67.50;;;;;;4965562;29;20047;-74
2022/08/17 08:34:22;;;;;;;7.15;3.92;;;26.90;67.40;;;;;;4965568;29;20206;-74
2022/08/17 08:37:00;;;;;;;8.43;3.97;;;26.90;67.20;;;;;;4966087;29;20037;-75
2022/08/17 08:39:37;;;;;;;6.45;4.10;;;27.00;67.10;;;;;;4965586;29;20038;-75
2022/08/17 08:42:32;;;;;;;8.52;3.55;;;27.00;67.30;;;;;;4965755;29;20384;-78
2022/08/17 08:45:18;;;;;;;6.65;3.67;;;27.00;67.00;;;;;;4955652;29;20035;-77
2022/08/17 08:47:50;;;;;;;5.97;3.55;;;27.00;66.60;;;;;;4965544;29;20062;-75
2022/08/17 08:50:39;;;;;;;7.93;3.78;;;26.80;66.60;;;;;;4965330;29;20055;-74
2022/08/17 08:53:42;;;;;;;10.65;4.10;;;26.70;67.10;;;;;;4965733;29;20067;-76
2022/08/17 08:56:15;;;;;;;5.60;4.03;;;26.60;67.20;;;;;;4932537;29;20094;-77
2022/08/17 08:58:43;;;;;;;8.20;4.10;;;26.40;67.50;;;;;;4948605;29;20236;-77
2022/08/17 09:01:33;;;;;;;7.03;4.55;;;26.40;67.50;;;;;;4965036;29;20060;-79
2022/08/17 09:04:30;;;;;;;9.00;4.30;;;26.40;67.80;;;;;;4965464;29;20039;-78
2022/08/17 09:07:11;;;;;;;7.40;4.45;;;26.40;68.00;;;;;;4955620;29;20059;-76
2022/08/17 09:09:44;;;;;;;9.77;3.97;;;26.40;67.80;;;;;;4965540;29;20253;-76
2022/08/17 09:12:48;;;;;;;7.90;4.07;;;26.50;67.90;;;;;;4965140;29;20051;-77
2022/08/17 09:15:24;;;;;;;5.32;3.63;;;26.60;67.60;;;;;;4964593;29;20367;-75
2022/08/17 09:18:01;;;;;;;16.05;11.23;;;26.50;67.80;;;;;;4943793;29;20031;-74
2022/08/17 09:20:42;;;;;;;16.65;12.60;;;26.40;69.00;;;;;;4947680;29;20031;-76
2022/08/17 09:23:26;;;;;;;9.98;6.05;;;26.50;71.80;;;;;;4958203;29;20190;-76
2022/08/17 09:26:19;;;;;;;8.02;5.78;;;26.50;68.90;;;;;;4959266;29;20039;-76
2022/08/17 09:28:50;;;;;;;6.32;3.92;;;26.60;69.90;;;;;;4946036;29;20031;-76
2022/08/17 09:31:34;;;;;;;7.13;3.72;;;26.60;68.20;;;;;;4949833;29;20035;-77
2022/08/17 09:34:11;;;;;;;8.50;4.15;;;26.60;67.90;;;;;;4964397;28;20038;-76
2022/08/17 09:37:02;;;;;;;6.03;4.50;;;26.50;68.60;;;;;;4964399;29;20294;-76
2022/08/17 09:39:52;;;;;;;9.13;4.07;;;26.40;68.90;;;;;;4963400;29;20308;-74
2022/08/17 09:42:25;;;;;;;8.45;6.28;;;26.20;69.00;;;;;;4946788;29;20275;-78
2022/08/17 09:45:00;;;;;;;8.15;4.55;;;26.10;69.60;;;;;;4964884;29;20030;-75
2022/08/17 09:47:40;;;;;;;7.40;4.55;;;26.00;70.00;;;;;;4964296;29;20037;-75
2022/08/17 09:50:27;;;;;;;6.72;4.57;;;26.10;71.20;;;;;;4964685;29;20031;-76
2022/08/17 09:52:58;;;;;;;9.32;4.55;;;26.10;71.80;;;;;;4947756;29;20038;-76
2022/08/17 09:55:53;;;;;;;6.10;4.13;;;26.10;70.70;;;;;;4947187;29;20242;-76
2022/08/17 09:58:39;;;;;;;9.07;4.50;;;26.10;71.20;;;;;;4964138;29;20031;-76
2022/08/17 10:01:28;;;;;;;9.70;4.32;;;26.20;71.60;;;;;;4947624;29;20206;-75
2022/08/17 10:04:12;;;;;;;9.98;4.90;;;26.20;71.40;;;;;;4926068;29;20036;-74
2022/08/17 10:06:54;;;;;;;11.48;4.72;;;26.20;71.10;;;;;;4926227;29;20039;-75
2022/08/17 10:09:42;;;;;;;9.73;4.60;;;26.30;71.40;;;;;;4918077;29;20378;-75
2022/08/17 10:12:34;;;;;;;8.35;4.75;;;26.40;70.60;;;;;;4920367;29;20221;-76
2022/08/17 10:15:14;;;;;;;7.43;4.32;;;26.50;70.10;;;;;;4926045;29;20028;-76
2022/08/17 10:17:42;;;;;;;6.38;3.10;;;26.70;71.30;;;;;;4919955;29;20048;-74
2022/08/17 10:20:14;;;;;;;5.32;3.10;;;26.70;67.60;;;;;;4909912;29;20029;-75
2022/08/17 10:28:51;;;;;;;4.45;2.88;;;26.90;67.00;;;;;;4925252;29;20070;-77
2022/08/17 10:31:30;;;;;;;6.22;2.78;;;26.90;66.80;;;;;;4927380;29;20029;-74
2022/08/17 10:34:23;;;;;;;8.73;3.80;;;26.80;66.90;;;;;;4914025;29;20062;-76
2022/08/17 10:36:55;;;;;;;4.35;3.20;;;26.90;67.50;;;;;;4916250;29;20027;-76
2022/08/17 10:39:30;;;;;;;5.07;2.78;;;27.00;66.40;;;;;;4921965;29;20028;-75
2022/08/17 10:42:02;;;;;;;5.07;3.25;;;27.10;65.30;;;;;;4912804;29;20078;-76
2022/08/17 10:44:59;;;;;;;4.30;2.83;;;27.20;65.40;;;;;;4918300;29;20043;-76
2022/08/17 10:47:52;;;;;;;4.50;2.78;;;27.40;65.20;;;;;;4919574;29;20031;-76
2022/08/17 10:50:46;;;;;;;4.72;2.92;;;27.50;64.90;;;;;;4914149;29;20107;-76
2022/08/17 10:53:30;;;;;;;4.68;2.92;;;27.60;65.20;;;;;;4921565;29;20040;-75
2022/08/17 10:56:11;;;;;;;6.43;3.40;;;27.50;65.20;;;;;;4914153;29;20322;-76
2022/08/17 10:58:45;;;;;;;4.47;3.00;;;27.20;65.40;;;;;;4917956;29;20266;-75
2022/08/17 11:01:11;;;;;;;3.50;2.67;;;27.00;66.30;;;;;;4908700;29;20132;-76
2022/08/17 11:03:54;;;;;;;4.93;3.08;;;26.90;65.50;;;;;;4957284;28;20110;-74
2022/08/17 11:06:28;;;;;;;4.03;3.08;;;26.80;66.10;;;;;;4958970;29;20309;-75
2022/08/17 11:09:16;;;;;;;4.05;3.03;;;26.70;66.90;;;;;;4964203;29;20248;-74
2022/08/17 11:11:58;;;;;;;4.45;3.10;;;26.60;67.50;;;;;;4964242;29;20035;-75
2022/08/17 11:14:59;;;;;;;6.40;2.67;;;26.40;68.00;;;;;;4945174;29;20221;-75
2022/08/17 11:17:51;;;;;;;4.07;2.95;;;26.00;69.30;;;;;;4864226;29;20058;-76
2022/08/17 11:20:31;;;;;;;3.63;3.05;;;25.90;70.50;;;;;;4942478;29;20438;-76
2022/08/17 11:23:06;;;;;;;4.18;2.83;;;25.70;72.20;;;;;;4945155;29;20051;-76
2022/08/17 11:25:39;;;;;;;5.72;3.33;;;25.70;72.50;;;;;;4944474;29;20250;-74
2022/08/17 11:28:18;;;;;;;5.15;3.05;;;25.50;73.40;;;;;;4958441;29;20054;-75
2022/08/17 11:30:53;;;;;;;5.32;3.15;;;25.30;74.70;;;;;;4964089;29;20050;-74
2022/08/17 11:33:28;;;;;;;3.92;3.10;;;25.10;75.70;;;;;;4956651;29;20035;-76
2022/08/17 11:36:30;;;;;;;5.50;3.10;;;25.10;75.70;;;;;;4957177;29;20269;-76
2022/08/17 11:39:19;;;;;;;5.65;3.22;;;25.00;75.50;;;;;;4955390;28;20024;-76
2022/08/17 11:42:11;;;;;;;5.90;2.97;;;25.10;75.40;;;;;;4944488;29;20019;-77
2022/08/17 11:44:56;;;;;;;5.13;3.30;;;25.10;74.60;;;;;;4927054;29;20241;-74
2022/08/17 11:53:35;;;;;;;4.25;2.80;;;24.80;75.00;;;;;;4955144;29;20228;-74
2022/08/17 11:56:05;;;;;;;4.70;3.28;;;25.00;75.60;;;;;;4962693;29;20082;-74
2022/08/17 11:58:42;;;;;;;5.80;2.60;;;25.20;74.40;;;;;;4953984;28;20036;-76
2022/08/17 12:01:25;;;;;;;5.50;3.00;;;25.20;74.30;;;;;;4953562;29;20023;-74
2022/08/17 12:03:55;;;;;;;4.35;2.83;;;25.20;74.50;;;;;;4943985;29;20039;-77
2022/08/17 12:06:48;;;;;;;5.43;2.90;;;25.30;74.60;;;;;;4941924;29;20095;-74
2022/08/17 12:09:17;;;;;;;4.78;3.10;;;25.50;74.60;;;;;;4943617;29;20071;-75
2022/08/17 12:12:11;;;;;;;5.28;3.20;;;25.50;74.80;;;;;;4961240;29;20539;-74
2022/08/17 12:14:39;;;;;;;5.03;3.15;;;25.50;74.80;;;;;;4941881;29;20352;-75
2022/08/17 12:17:08;;;;;;;4.50;2.80;;;25.80;73.40;;;;;;4962184;29;20027;-75
2022/08/17 12:19:36;;;;;;;4.78;3.20;;;26.00;72.50;;;;;;4957528;29;20059;-76
2022/08/17 12:22:25;;;;;;;5.15;3.13;;;26.30;71.70;;;;;;4956918;29;20042;-75
2022/08/17 12:25:18;;;;;;;5.70;3.35;;;26.80;69.50;;;;;;4958907;29;20328;-75
2022/08/17 12:27:47;;;;;;;5.78;3.10;;;27.00;69.90;;;;;;4962844;29;20035;-76
2022/08/17 12:30:16;;;;;;;4.95;3.17;;;27.40;69.30;;;;;;4962831;29;20249;-74
2022/08/17 12:32:46;;;;;;;5.82;3.20;;;27.60;68.30;;;;;;4961805;29;20031;-74
2022/08/17 12:35:22;;;;;;;5.35;3.08;;;27.90;67.60;;;;;;4962238;29;20046;-75
2022/08/17 12:37:49;;;;;;;5.65;3.15;;;28.10;67.10;;;;;;4962401;29;20042;-74
2022/08/17 12:40:22;;;;;;;4.30;3.13;;;28.30;66.50;;;;;;4962366;29;20086;-75
2022/08/17 12:42:59;;;;;;;4.68;3.50;;;28.30;66.70;;;;;;4962487;29;20039;-75
2022/08/17 12:45:40;;;;;;;5.00;3.38;;;28.30;65.80;;;;;;4961687;29;20359;-75
2022/08/17 12:48:22;;;;;;;6.30;3.47;;;28.20;65.80;;;;;;4961996;29;20103;-74
2022/08/17 12:50:49;;;;;;;5.35;2.90;;;28.20;65.90;;;;;;4962248;29;20036;-75
2022/08/17 12:53:26;;;;;;;5.20;2.80;;;28.10;64.60;;;;;;4961982;29;20066;-75
2022/08/17 12:55:53;;;;;;;5.20;2.83;;;27.90;64.00;;;;;;4961981;29;20031;-75
2022/08/17 12:58:31;;;;;;;4.50;2.97;;;28.00;64.10;;;;;;4961776;29;20055;-74
2022/08/17 13:01:04;;;;;;;6.95;3.08;;;28.10;64.40;;;;;;4961823;29;20098;-74
2022/08/17 13:03:41;;;;;;;6.03;3.10;;;28.40;64.80;;;;;;4944825;29;20071;-74
2022/08/17 13:06:10;;;;;;;5.85;3.78;;;28.90;64.30;;;;;;4951671;29;20058;-74
2022/08/17 13:08:46;;;;;;;5.50;3.33;;;29.80;64.00;;;;;;4962816;28;20042;-75
2022/08/17 13:11:18;;;;;;;6.07;3.03;;;31.80;59.00;;;;;;4966188;29;20316;-75
2022/08/17 13:13:55;;;;;;;6.32;2.78;;;34.60;55.60;;;;;;4966154;29;20214;-75
2022/08/17 13:16:23;;;;;;;6.75;2.50;;;36.60;52.50;;;;;;4948900;29;20242;-73
2022/08/17 13:18:53;;;;;;;6.05;2.30;;;37.90;50.80;;;;;;4966378;29;20027;-73
2022/08/17 13:21:25;;;;;;;3.03;2.10;;;39.10;48.50;;;;;;4966267;29;20039;-74
2022/08/17 13:24:03;;;;;;;5.95;2.30;;;40.20;47.20;;;;;;4966368;29;20045;-74
2022/08/17 13:27:08;;;;;;;4.32;2.00;;;39.60;47.10;;;;;;4965854;29;20108;-75
2022/08/17 13:29:43;;;;;;;4.07;2.20;;;40.10;46.20;;;;;;4965275;29;20106;-74
2022/08/17 13:32:10;;;;;;;2.92;2.03;;;40.40;45.80;;;;;;4965877;29;20031;-74
2022/08/17 13:34:48;;;;;;;3.40;2.00;;;40.20;45.50;;;;;;4965573;29;20015;-73
2022/08/17 13:37:28;;;;;;;7.47;2.65;;;39.70;45.60;;;;;;4965906;29;20046;-74
2022/08/17 13:40:17;;;;;;;5.32;2.50;;;41.00;45.30;;;;;;4965838;29;20031;-75
2022/08/17 13:42:51;;;;;;;4.90;1.95;;;42.80;43.70;;;;;;4964556;29;20396;-73
2022/08/17 13:45:36;;;;;;;3.97;2.17;;;43.70;42.80;;;;;;4966035;29;20036;-74
2022/08/17 13:48:13;;;;;;;2.90;1.80;;;43.50;42.30;;;;;;4965668;29;20054;-74
2022/08/17 13:51:02;;;;;;;3.60;1.70;;;42.60;42.20;;;;;;4965150;29;20038;-74
2022/08/17 13:53:35;;;;;;;3.03;2.03;;;43.70;41.60;;;;;;4965378;29;20236;-73
2022/08/17 13:56:14;;;;;;;3.35;2.00;;;44.50;41.50;;;;;;4965606;29;20035;-74
2022/08/17 13:58:56;;;;;;;2.78;1.60;;;44.70;41.00;;;;;;4965055;29;20031;-73
2022/08/17 14:01:45;;;;;;;3.95;2.10;;;44.30;40.80;;;;;;4965035;29;20332;-73
2022/08/17 14:04:15;;;;;;;4.45;2.10;;;45.10;40.90;;;;;;4965201;29;20326;-73
2022/08/17 14:06:46;;;;;;;2.97;1.80;;;45.70;40.30;;;;;;4964741;29;20345;-75
2022/08/17 14:09:14;;;;;;;5.05;1.85;;;46.10;39.70;;;;;;4965577;29;20035;-73
2022/08/17 14:11:41;;;;;;;2.85;1.90;;;45.80;39.90;;;;;;4964580;29;20027;-74
2022/08/17 14:14:06;;;;;;;5.80;3.50;;;45.30;40.50;;;;;;4965235;29;20035;-73
2022/08/17 14:16:32;;;;;;;4.78;4.30;;;45.30;40.60;;;;;;4964740;29;20031;-73
2022/08/17 14:18:58;;;;;;;4.93;2.55;;;45.00;40.80;;;;;;4965097;29;20031;-73
2022/08/17 14:21:24;;;;;;;2.92;1.85;;;44.90;40.30;;;;;;4963724;28;20023;-75
2022/08/17 14:23:50;;;;;;;5.00;2.22;;;44.40;39.60;;;;;;4965501;29;20035;-75
2022/08/17 14:26:16;;;;;;;3.72;2.30;;;44.20;39.60;;;;;;4964974;29;20055;-74
2022/08/17 14:28:42;;;;;;;5.07;2.13;;;44.10;40.20;;;;;;4964326;29;20094;-73
2022/08/17 14:31:09;;;;;;;3.28;1.83;;;44.10;40.40;;;;;;4964968;29;20430;-73
2022/08/17 14:33:35;;;;;;;3.13;2.03;;;43.20;40.00;;;;;;4964141;29;20062;-73
2022/08/17 14:36:01;;;;;;;3.85;1.90;;;43.80;40.60;;;;;;4964782;29;20033;-75
2022/08/17 14:38:27;;;;;;;3.95;1.83;;;44.10;39.80;;;;;;4964248;29;20031;-75
2022/08/17 14:40:53;;;;;;;3.88;2.00;;;42.40;40.90;;;;;;4964634;29;20054;-75
2022/08/17 14:43:19;;;;;;;3.03;2.00;;;41.90;41.20;;;;;;4965285;29;20035;-77
2022/08/17 14:45:45;;;;;;;2.88;2.08;;;41.90;41.90;;;;;;4964006;29;20038;-75
2022/08/17 14:48:11;;;;;;;3.83;2.30;;;42.30;42.20;;;;;;4964835;29;20035;-75
2022/08/17 14:50:40;;;;;;;3.17;2.20;;;42.80;41.60;;;;;;4963886;29;20198;-75
2022/08/17 14:53:10;;;;;;;2.60;1.80;;;43.10;40.80;;;;;;4947552;29;20035;-75
2022/08/17 14:55:38;;;;;;;3.50;1.92;;;43.00;41.00;;;;;;4964082;29;20038;-75
2022/08/17 14:58:04;;;;;;;2.97;1.98;;;42.10;41.40;;;;;;4964358;29;20094;-74
2022/08/17 15:00:31;;;;;;;2.72;2.30;;;41.40;41.50;;;;;;4946665;29;20031;-75
2022/08/17 15:02:58;;;;;;;3.45;2.28;;;41.50;41.60;;;;;;4963983;29;20055;-73
2022/08/17 15:05:31;;;;;;;4.47;2.20;;;41.10;41.50;;;;;;4964229;29;20038;-75
2022/08/17 15:08:01;;;;;;;3.95;2.13;;;40.60;42.80;;;;;;4964250;29;20103;-74
2022/08/17 15:10:28;;;;;;;3.90;2.10;;;40.10;43.10;;;;;;4963961;29;20102;-75
2022/08/17 15:12:54;;;;;;;3.30;2.07;;;39.40;43.40;;;;;;4964305;29;20194;-75
2022/08/17 15:15:20;;;;;;;3.70;2.08;;;38.80;44.00;;;;;;4964461;29;20023;-75
2022/08/17 15:17:45;;;;;;;3.03;2.20;;;38.30;44.80;;;;;;4963888;29;20047;-74
2022/08/17 15:20:23;;;;;;;3.38;2.30;;;38.00;45.50;;;;;;4964471;29;20031;-74
2022/08/17 15:22:49;;;;;;;5.28;2.22;;;37.40;45.00;;;;;;4963391;29;20474;-75
2022/08/17 15:25:17;;;;;;;3.95;2.20;;;37.30;45.90;;;;;;4964430;29;20023;-74
2022/08/17 15:27:43;;;;;;;5.25;2.45;;;37.40;45.50;;;;;;4963346;29;20023;-74
2022/08/17 15:30:09;;;;;;;3.50;2.25;;;37.70;45.50;;;;;;4963905;29;20023;-74
2022/08/17 15:32:38;;;;;;;3.65;2.17;;;38.40;44.90;;;;;;4963501;28;20150;-74
2022/08/17 15:35:05;;;;;;;3.60;2.22;;;39.10;44.90;;;;;;4963962;29;20086;-75
2022/08/17 15:37:32;;;;;;;4.25;1.92;;;39.90;43.80;;;;;;4963231;29;20090;-74
2022/08/17 15:39:59;;;;;;;3.70;2.10;;;41.20;42.90;;;;;;4964019;29;20039;-75
2022/08/17 15:42:26;;;;;;;3.80;2.13;;;42.10;42.50;;;;;;4946819;29;20078;-75
2022/08/17 15:44:54;;;;;;;5.15;2.40;;;42.60;41.70;;;;;;4965971;29;20102;-72
2022/08/17 15:47:20;;;;;;;3.00;1.90;;;43.40;41.40;;;;;;4967673;29;20070;-74
2022/08/17 15:49:46;;;;;;;2.70;2.23;;;43.50;40.50;;;;;;4967639;29;20050;-72
2022/08/17 15:52:23;;;;;;;3.42;2.30;;;43.30;40.40;;;;;;4968637;29;20035;-75
2022/08/17 15:54:52;;;;;;;3.72;2.40;;;41.90;41.40;;;;;;4964230;29;20043;-76
2022/08/17 15:57:18;;;;;;;3.25;2.40;;;40.80;41.90;;;;;;4963539;29;20043;-75
2022/08/17 15:59:45;;;;;;;3.75;2.13;;;39.70;42.70;;;;;;4963300;29;20324;-74
2022/08/17 16:02:27;;;;;;;4.63;2.58;;;38.60;43.90;;;;;;4963363;29;20078;-74
2022/08/17 16:04:54;;;;;;;4.57;2.50;;;37.60;44.80;;;;;;4963124;29;20034;-74
2022/08/17 16:07:23;;;;;;;6.30;2.30;;;36.80;46.10;;;;;;4964007;29;20087;-75
2022/08/17 16:09:49;;;;;;;4.78;2.50;;;36.10;46.20;;;;;;4963283;29;20082;-75
2022/08/17 16:12:20;;;;;;;3.35;2.50;;;35.40;47.20;;;;;;4963740;29;20070;-74
2022/08/17 16:14:52;;;;;;;4.10;2.78;;;34.60;48.00;;;;;;4963265;29;20043;-74
2022/08/17 16:17:17;;;;;;;4.85;2.60;;;34.00;48.80;;;;;;4964051;29;20226;-72
2022/08/17 16:19:47;;;;;;;6.00;3.00;;;33.40;49.40;;;;;;4962913;29;20039;-73
2022/08/17 16:22:13;;;;;;;4.85;2.70;;;33.10;50.30;;;;;;4963780;29;20039;-73
2022/08/17 16:24:42;;;;;;;3.15;2.60;;;32.80;51.10;;;;;;4963087;29;20098;-75
2022/08/17 16:27:12;;;;;;;6.78;3.97;;;32.60;51.10;;;;;;4963402;29;20051;-75
2022/08/17 16:29:39;;;;;;;6.05;3.72;;;32.30;51.60;;;;;;4962775;29;20101;-74
2022/08/17 16:32:14;;;;;;;4.75;3.17;;;32.30;51.80;;;;;;4963399;29;20114;-74
2022/08/17 16:34:41;;;;;;;6.38;3.75;;;32.30;51.80;;;;;;4962074;29;20309;-73
2022/08/17 16:37:08;;;;;;;4.57;3.00;;;32.30;52.10;;;;;;4952371;29;20102;-74
2022/08/17 16:39:37;;;;;;;4.18;2.90;;;32.30;52.10;;;;;;4916869;29;20059;-75
2022/08/17 16:42:27;;;;;;;4.32;2.92;;;32.20;52.20;;;;;;4954360;29;20038;-75
2022/08/17 16:44:56;;;;;;;7.65;2.90;;;32.20;52.40;;;;;;4951052;28;20095;-74
2022/08/17 16:47:22;;;;;;;6.10;3.08;;;32.10;52.60;;;;;;4948040;29;20032;-74
2022/08/17 16:49:49;;;;;;;4.78;3.35;;;31.80;52.60;;;;;;4964721;29;20047;-74
2022/08/17 16:52:22;;;;;;;4.22;3.00;;;31.60;52.60;;;;;;4967017;29;20098;-75
2022/08/17 16:54:48;;;;;;;4.30;3.13;;;31.30;53.30;;;;;;4966817;29;20035;-74
2022/08/17 16:57:16;;;;;;;4.38;3.00;;;31.00;54.10;;;;;;4966862;29;20023;-75
2022/08/17 16:59:43;;;;;;;3.72;3.20;;;30.60;54.60;;;;;;4957460;29;20027;-77
2022/08/17 17:02:09;;;;;;;4.93;3.05;;;30.30;55.30;;;;;;4926959;29;20047;-74
2022/08/17 17:04:42;;;;;;;5.03;3.30;;;30.10;55.60;;;;;;4927939;29;20099;-73
2022/08/17 17:07:18;;;;;;;5.18;3.13;;;30.10;56.00;;;;;;4928679;29;20361;-74
2022/08/17 17:09:47;;;;;;;4.43;3.40;;;30.10;56.40;;;;;;4927252;29;20103;-72
2022/08/17 17:12:17;;;;;;;5.32;3.50;;;29.90;56.30;;;;;;4937094;29;20058;-75
2022/08/17 17:14:47;;;;;;;6.10;3.00;;;29.80;57.00;;;;;;4937092;29;20321;-75
2022/08/17 17:17:31;;;;;;;5.10;3.35;;;29.70;57.30;;;;;;4947596;29;20062;-74
2022/08/17 17:20:09;;;;;;;5.35;3.70;;;29.50;57.70;;;;;;4939937;29;20225;-75
2022/08/17 17:22:45;;;;;;;6.20;3.60;;;29.40;58.10;;;;;;4946609;29;20183;-75
2022/08/17 17:25:27;;;;;;;5.60;3.85;;;29.30;58.40;;;;;;4947196;29;20078;-75
2022/08/17 17:27:59;;;;;;;5.30;3.30;;;29.20;58.90;;;;;;4930585;29;20052;-74
2022/08/17 17:30:33;;;;;;;7.00;3.40;;;29.10;59.10;;;;;;4927425;29;20036;-75
2022/08/17 17:33:14;;;;;;;4.95;3.42;;;29.10;59.40;;;;;;4927846;29;20032;-74
2022/08/17 17:35:57;;;;;;;5.15;3.70;;;29.00;59.80;;;;;;4930015;29;20024;-76
2022/08/17 17:38:31;;;;;;;6.22;4.05;;;28.90;60.50;;;;;;4947185;29;20102;-76
2022/08/17 17:41:09;;;;;;;8.43;6.00;;;28.80;60.70;;;;;;4946930;29;20035;-75
2022/08/17 17:43:36;;;;;;;6.25;4.43;;;28.70;61.20;;;;;;4947248;29;20039;-75
2022/08/17 17:46:20;;;;;;;6.85;4.00;;;28.60;61.60;;;;;;4941318;29;20020;-76
2022/08/17 17:48:46;;;;;;;5.55;3.15;;;28.40;62.20;;;;;;4927953;29;20024;-76
2022/08/17 17:51:35;;;;;;;6.05;3.90;;;28.30;62.90;;;;;;4927974;29;20306;-75
2022/08/17 17:54:20;;;;;;;5.90;3.28;;;28.10;63.40;;;;;;4926779;29;20060;-77
2022/08/17 17:57:05;;;;;;;6.30;3.53;;;27.90;63.50;;;;;;4929505;29;20071;-74
2022/08/17 17:59:46;;;;;;;5.95;3.58;;;27.70;63.70;;;;;;4926989;29;20114;-74
2022/08/17 18:02:45;;;;;;;5.00;4.03;;;27.50;64.10;;;;;;4918092;29;20056;-74
2022/08/17 18:05:23;;;;;;;4.38;3.30;;;27.40;64.40;;;;;;4923601;29;20032;-74
2022/08/17 18:08:14;;;;;;;5.20;4.05;;;27.30;64.90;;;;;;4924777;29;20047;-75
2022/08/17 18:10:54;;;;;;;6.32;3.60;;;27.30;65.00;;;;;;4926312;29;20039;-74
2022/08/17 18:13:58;;;;;;;5.18;3.85;;;27.20;65.20;;;;;;4911696;29;20043;-74
2022/08/17 18:16:28;;;;;;;6.30;3.70;;;27.10;65.50;;;;;;4907460;29;20040;-73
2022/08/17 18:18:56;;;;;;;7.85;4.70;;;27.10;65.50;;;;;;4905729;29;20163;-74
2022/08/17 18:21:34;;;;;;;5.70;3.97;;;27.00;66.90;;;;;;4907575;29;20017;-75
2022/08/17 18:24:01;;;;;;;;;;;26.90;66.50;;;;;;4907113;29;20036;-75
2022/08/17 18:26:54;;;;;;;6.88;5.35;;;26.80;67.20;;;;;;4907316;29;19907;-74
2022/08/17 18:29:30;;;;;;;11.00;5.00;;;26.60;67.40;;;;;;4913050;29;20270;-75
2022/08/17 18:32:21;;;;;;;6.68;4.28;;;26.50;68.10;;;;;;4925701;29;20039;-75
2022/08/17 18:34:51;;;;;;;8.63;4.65;;;26.40;69.20;;;;;;4925845;29;20051;-76
2022/08/17 18:37:29;;;;;;;5.65;3.88;;;26.30;69.80;;;;;;4926137;29;20123;-75
2022/08/17 18:39:55;;;;;;;6.38;4.75;;;26.10;70.60;;;;;;4925528;29;20340;-76
2022/08/17 18:42:27;;;;;;;7.32;4.20;;;26.10;71.00;;;;;;4925790;29;20035;-76
2022/08/17 18:44:54;;;;;;;6.68;4.03;;;26.00;70.20;;;;;;4925820;29;20048;-72
2022/08/17 18:47:25;;;;;;;6.53;4.45;;;26.00;71.40;;;;;;4925963;29;20076;-73
2022/08/17 18:50:18;;;;;;;9.07;4.07;;;25.90;71.70;;;;;;4924890;29;20039;-76
2022/08/17 18:52:47;;;;;;;5.75;3.90;;;25.80;72.10;;;;;;4924188;29;20044;-74
2022/08/17 18:55:19;;;;;;;8.13;4.90;;;25.80;72.10;;;;;;4926093;29;20019;-73
2022/08/17 18:57:54;;;;;;;7.43;4.50;;;25.70;72.50;;;;;;4925150;29;20032;-75